»·PEaware :: N581DD KSBA-KBUR

N581DD :: KSBA-KBUR

FLIGHT INFORMATION

Flight Status: Arrived
Operator: Privately registered:
United States
More flights under this callsign
Pilot: Lane W. (33266)
Aircraft: CESSNA 172 SKYHAWK
(C172)
More flights by this aircraft type
Origin: KSBA Santa Barbara Mun
United States
Destination: KBUR Bob Hope-Burbank
United States
More flights between these airports :: More routes between these airports
Route: VTU
File this flight plan on PilotEdge
Remarks:
Altitude:
(Current/Filed)
5,500ft
Speed:
(Current/Filed)
115kts
Departed: 22-Feb-21 10:58 AM
Arrived: 22-Feb-21 11:53 AM
Distance/Time
Traveled:
74nm/0:55
Distance/Time
To Go:
Arrived

Flight Plot

Page will automatically refresh every two minutes.

Flight plan parsing failed; only flown route is shown


Map Options




Map Legend


Flown Route
Filed Route
Departure Airport
Arrival Airport
Navaid (VOR, NDB)
Fix

Horizontal Profiles

Position Reports

Time Latitude Longitude Heading Altitude Ground
Speed
22-Feb-21 10:40 34.422663 -119.835593 340 17ft 0kts
22-Feb-21 10:41 34.422663 -119.835593 340 17ft 0kts
22-Feb-21 10:42 34.422663 -119.835593 340 17ft 0kts
22-Feb-21 10:43 34.422663 -119.835593 340 17ft 0kts
22-Feb-21 10:44 34.422663 -119.835593 340 17ft 0kts
22-Feb-21 10:45 34.422663 -119.835593 340 17ft 0kts
22-Feb-21 10:46 34.422663 -119.835593 340 17ft 0kts
22-Feb-21 10:47 34.422663 -119.835593 340 17ft 0kts
22-Feb-21 10:48 34.422663 -119.835593 340 17ft 0kts
22-Feb-21 10:49 34.422720 -119.835643 306 17ft 0kts
22-Feb-21 10:50 34.422688 -119.836918 266 17ft 5kts
22-Feb-21 10:51 34.424693 -119.837739 345 17ft 8kts
22-Feb-21 10:52 34.426724 -119.837784 90 17ft 8kts
22-Feb-21 10:53 34.426946 -119.834424 10 17ft 7kts
22-Feb-21 10:54 34.427044 -119.834426 349 17ft 0kts
22-Feb-21 10:55 34.427044 -119.834426 349 17ft 0kts
22-Feb-21 10:56 34.427485 -119.834673 354 17ft 11kts
22-Feb-21 10:57 34.427509 -119.850744 266 259ft 80kts
22-Feb-21 10:58 34.425907 -119.878060 261 1001ft 82kts
22-Feb-21 10:59 34.420101 -119.908035 251 1448ft 102kts
22-Feb-21 11:00 34.410236 -119.941173 222 1283ft 98kts
22-Feb-21 11:01 34.396941 -119.924426 114 1884ft 84kts
22-Feb-21 11:02 34.386248 -119.899279 126 2566ft 85kts
22-Feb-21 11:03 34.375381 -119.874341 115 3252ft 82kts
22-Feb-21 11:05 34.364607 -119.850156 115 3954ft 84kts
22-Feb-21 11:06 34.353083 -119.824564 115 4658ft 87kts
22-Feb-21 11:07 34.341345 -119.798854 115 5356ft 87kts
22-Feb-21 11:08 34.327742 -119.768995 116 5485ft 109kts
22-Feb-21 11:09 34.312975 -119.736537 116 5484ft 110kts
22-Feb-21 11:10 34.300027 -119.703056 111 5484ft 110kts
22-Feb-21 11:11 34.287260 -119.669458 110 5483ft 109kts
22-Feb-21 11:12 34.275827 -119.635508 105 5481ft 108kts
22-Feb-21 11:13 34.265931 -119.601369 105 5480ft 107kts
22-Feb-21 11:14 34.256095 -119.567259 104 5480ft 106kts
22-Feb-21 11:15 34.246628 -119.533836 104 5474ft 104kts
22-Feb-21 11:16 34.237362 -119.500926 104 5500ft 102kts
22-Feb-21 11:17 34.228060 -119.468402 104 5501ft 102kts
22-Feb-21 11:18 34.218877 -119.435605 104 5496ft 102kts
22-Feb-21 11:19 34.210723 -119.403326 102 5497ft 99kts
22-Feb-21 11:20 34.202532 -119.371449 104 5497ft 99kts
22-Feb-21 11:21 34.194278 -119.339839 104 5503ft 99kts
22-Feb-21 11:22 34.185859 -119.307798 103 5504ft 100kts
22-Feb-21 11:23 34.177369 -119.275827 104 5501ft 99kts
22-Feb-21 11:23 34.170238 -119.249372 104 5502ft 99kts
22-Feb-21 11:25 34.160289 -119.212426 104 5504ft 99kts
22-Feb-21 11:26 34.151575 -119.180737 104 5505ft 98kts
22-Feb-21 11:26 34.144326 -119.154496 105 5508ft 99kts
22-Feb-21 11:28 34.134027 -119.118269 104 5509ft 98kts
22-Feb-21 11:29 34.124986 -119.087029 106 5507ft 98kts
22-Feb-21 11:29 34.117336 -119.061178 105 5510ft 98kts
22-Feb-21 11:31 34.115516 -119.023436 78 5515ft 97kts
22-Feb-21 11:31 34.119711 -118.996730 77 5510ft 96kts
22-Feb-21 11:32 34.124722 -118.965151 78 5517ft 95kts
22-Feb-21 11:33 34.129759 -118.933501 77 5514ft 95kts
22-Feb-21 11:35 34.135596 -118.896762 79 5507ft 95kts
22-Feb-21 11:36 34.140648 -118.865372 78 5511ft 96kts
22-Feb-21 11:36 34.144760 -118.839159 79 5509ft 94kts
22-Feb-21 11:37 34.149358 -118.807996 79 5508ft 94kts
22-Feb-21 11:38 34.152959 -118.776427 82 5512ft 95kts
22-Feb-21 11:39 34.157101 -118.744618 79 5504ft 96kts
22-Feb-21 11:40 34.161425 -118.712690 79 5506ft 96kts
22-Feb-21 11:41 34.165382 -118.680189 79 5505ft 98kts
22-Feb-21 11:42 34.170214 -118.647599 75 5504ft 99kts
22-Feb-21 11:43 34.175860 -118.614254 75 5414ft 106kts
22-Feb-21 11:44 34.181892 -118.579065 75 5076ft 108kts
22-Feb-21 11:45 34.187883 -118.542955 75 4676ft 110kts
22-Feb-21 11:46 34.194915 -118.506899 74 4099ft 110kts
22-Feb-21 11:47 34.199616 -118.473480 85 3484ft 95kts
22-Feb-21 11:48 34.199361 -118.445700 89 2988ft 82kts
22-Feb-21 11:49 34.198302 -118.417578 89 2386ft 84kts
22-Feb-21 11:50 34.198141 -118.392810 86 1809ft 64kts
22-Feb-21 11:51 34.198062 -118.372742 92 1049ft 56kts
22-Feb-21 11:52 34.197816 -118.360997 89 779ft 16kts
22-Feb-21 11:53 34.198910 -118.361467 271 779ft 13kts
22-Feb-21 11:54 34.200093 -118.364256 71 779ft 7kts
22-Feb-21 11:55 34.200338 -118.363532 161 779ft 0kts
22-Feb-21 11:56 34.200338 -118.363532 161 779ft 0kts
22-Feb-21 11:57 34.200338 -118.363532 161 779ft 0kts

Navigation Log

Ident Type
Flight plan parsing failed, navigation log unavailable